createdAt,value
2022-11-28T00:00:23.617Z,5.72
2022-11-28T00:03:17.045Z,5.73
2022-11-28T00:05:50.664Z,5.75
2022-11-28T00:08:24.279Z,5.71
2022-11-28T00:10:57.694Z,5.75
2022-11-28T00:13:31.747Z,5.75
2022-11-28T00:16:08.158Z,5.76
2022-11-28T00:18:41.595Z,5.77
2022-11-28T00:21:16.213Z,5.78
2022-11-28T00:23:50.811Z,5.78
2022-11-28T00:26:26.023Z,5.78
2022-11-28T00:29:00.677Z,5.79
2022-11-28T00:31:43.026Z,5.79
2022-11-28T00:34:17.871Z,5.79
2022-11-28T00:36:51.689Z,5.79
2022-11-28T00:39:25.375Z,5.80
2022-11-28T00:41:58.520Z,5.80
2022-11-28T00:44:31.787Z,5.80
2022-11-28T00:47:05.158Z,5.81
2022-11-28T00:49:40.080Z,5.80
2022-11-28T00:52:13.937Z,5.80
2022-11-28T00:54:47.485Z,5.80
2022-11-28T00:57:21.093Z,5.81
2022-11-28T00:59:54.683Z,5.81
2022-11-28T01:02:28.033Z,5.81
2022-11-28T01:05:01.881Z,5.81
2022-11-28T01:07:36.146Z,5.79
2022-11-28T01:10:12.566Z,5.80
2022-11-28T01:12:46.317Z,5.80
2022-11-28T01:15:19.761Z,5.80
2022-11-28T01:17:52.687Z,5.78
2022-11-28T01:20:26.344Z,5.79
2022-11-28T01:22:59.779Z,5.78
2022-11-28T01:25:33.804Z,5.77
2022-11-28T01:28:07.801Z,5.77
2022-11-28T01:30:42.244Z,5.77
2022-11-28T01:33:15.589Z,5.77
2022-11-28T01:35:58.545Z,5.77
2022-11-28T01:38:31.986Z,5.76
2022-11-28T01:41:05.462Z,5.75
2022-11-28T01:43:58.237Z,5.75
2022-11-28T01:46:29.799Z,5.73
2022-11-28T01:49:08.891Z,5.71
2022-11-28T01:51:43.792Z,5.72
2022-11-28T01:54:20.120Z,5.71
2022-11-28T01:56:57.999Z,5.69
2022-11-28T01:59:35.799Z,5.69
2022-11-28T02:02:15.166Z,5.70
2022-11-28T02:04:49.704Z,5.69
2022-11-28T02:07:23.153Z,5.70
2022-11-28T02:09:57.160Z,5.70
2022-11-28T02:12:46.134Z,5.69
2022-11-28T02:15:35.282Z,5.69
2022-11-28T02:18:24.247Z,5.69
2022-11-28T02:21:23.269Z,5.69
2022-11-28T02:24:22.233Z,5.68
2022-11-28T02:27:18.713Z,5.68
2022-11-28T02:30:08.095Z,5.68
2022-11-28T02:33:03.619Z,5.66
2022-11-28T02:35:45.239Z,5.68
2022-11-28T02:38:24.903Z,5.67
2022-11-28T02:41:04.320Z,5.66
2022-11-28T02:43:45.904Z,5.65
2022-11-28T02:46:27.476Z,5.66
2022-11-28T02:49:05.652Z,5.66
2022-11-28T02:51:43.714Z,5.65
2022-11-28T02:54:19.995Z,5.65
2022-11-28T02:56:54.422Z,5.65
2022-11-28T02:59:47.233Z,5.63
2022-11-28T03:02:21.073Z,5.63
2022-11-28T03:05:03.653Z,5.61
2022-11-28T03:07:52.240Z,5.58
2022-11-28T03:10:31.101Z,5.58
2022-11-28T03:13:14.751Z,5.58
2022-11-28T03:15:58.215Z,5.56
2022-11-28T03:18:37.721Z,5.56
2022-11-28T03:21:19.922Z,5.56
2022-11-28T03:23:54.131Z,5.56
2022-11-28T03:26:33.728Z,5.56
2022-11-28T03:29:15.919Z,5.54
2022-11-28T03:31:54.534Z,5.55
2022-11-28T03:34:32.758Z,5.55
2022-11-28T03:37:10.533Z,5.54
2022-11-28T03:39:50.138Z,5.54
2022-11-28T03:42:27.011Z,5.53
2022-11-28T03:45:08.394Z,5.52
2022-11-28T03:47:47.522Z,5.52
2022-11-28T03:50:26.873Z,5.53
2022-11-28T03:53:04.350Z,5.52
2022-11-28T03:55:42.877Z,5.52
2022-11-28T03:58:25.469Z,5.51
2022-11-28T04:01:10.239Z,5.50
2022-11-28T04:03:53.763Z,5.51
2022-11-28T04:06:31.489Z,5.49
2022-11-28T04:09:14.401Z,5.50
2022-11-28T04:11:53.316Z,5.47
2022-11-28T04:14:33.351Z,5.45
2022-11-28T04:17:11.806Z,5.43
2022-11-28T04:19:51.346Z,5.42
2022-11-28T04:22:30.610Z,5.40
2022-11-28T04:25:08.734Z,5.40
2022-11-28T04:27:47.519Z,5.38
2022-11-28T04:30:21.486Z,5.36
2022-11-28T04:33:02.234Z,5.37
2022-11-28T04:35:39.231Z,5.34
2022-11-28T04:38:14.847Z,5.34
2022-11-28T04:40:53.582Z,5.31
2022-11-28T04:43:31.901Z,5.30
2022-11-28T04:46:11.121Z,5.29
2022-11-28T04:48:45.570Z,5.26
2022-11-28T04:51:23.545Z,5.25
2022-11-28T04:54:07.997Z,5.22
2022-11-28T04:56:45.452Z,5.19
2022-11-28T04:59:20.042Z,5.18
2022-11-28T05:01:54.023Z,5.17
2022-11-28T05:04:27.518Z,5.16
2022-11-28T05:07:06.870Z,5.16
2022-11-28T05:09:40.739Z,5.16
2022-11-28T05:12:13.587Z,5.13
2022-11-28T05:14:47.238Z,5.12
2022-11-28T05:17:20.881Z,5.10
2022-11-28T05:19:54.124Z,5.08
2022-11-28T05:22:27.541Z,5.09
2022-11-28T05:25:01.082Z,5.08
2022-11-28T05:27:34.619Z,5.07
2022-11-28T05:30:13.471Z,5.05
2022-11-28T05:32:46.938Z,5.04
2022-11-28T05:35:20.740Z,5.04
2022-11-28T05:37:53.821Z,5.04
2022-11-28T05:40:26.976Z,5.04
2022-11-28T05:43:00.401Z,5.01
2022-11-28T05:45:34.339Z,5.02
2022-11-28T05:48:08.405Z,5.02
2022-11-28T05:50:44.159Z,5.01
2022-11-28T05:53:18.399Z,4.99
2022-11-28T05:55:51.992Z,4.98
2022-11-28T05:58:25.190Z,4.98
2022-11-28T06:00:58.782Z,4.96
2022-11-28T06:03:32.175Z,4.95
2022-11-28T06:06:06.049Z,4.95
2022-11-28T06:08:39.441Z,4.94
2022-11-28T06:11:15.071Z,4.93
2022-11-28T06:13:49.443Z,4.93
2022-11-28T06:16:24.660Z,4.91
2022-11-28T06:18:59.673Z,4.88
2022-11-28T06:21:33.811Z,4.88
2022-11-28T06:24:08.885Z,4.87
2022-11-28T06:26:42.558Z,4.87
2022-11-28T06:29:15.819Z,4.88
2022-11-28T06:31:49.218Z,4.87
2022-11-28T06:34:23.147Z,4.88
2022-11-28T06:36:56.953Z,4.86
2022-11-28T06:39:30.551Z,4.86
2022-11-28T06:42:04.366Z,4.85
2022-11-28T06:44:37.799Z,4.84
2022-11-28T06:47:11.496Z,4.84
2022-11-28T06:49:45.203Z,4.85
2022-11-28T06:52:18.784Z,4.83
2022-11-28T06:54:52.352Z,4.83
2022-11-28T06:57:25.217Z,4.79
2022-11-28T06:59:58.781Z,4.79
2022-11-28T07:02:32.240Z,4.76
2022-11-28T07:05:06.340Z,4.73
2022-11-28T07:07:53.059Z,4.73
2022-11-28T07:10:30.392Z,4.71
2022-11-28T07:13:05.687Z,4.69
2022-11-28T07:15:39.577Z,4.71
2022-11-28T07:18:12.876Z,4.69
2022-11-28T07:20:46.817Z,4.69
2022-11-28T07:23:20.670Z,4.69
2022-11-28T07:25:58.910Z,4.69
2022-11-28T07:28:32.850Z,4.68
2022-11-28T07:31:08.450Z,4.69
2022-11-28T07:33:43.195Z,4.69
2022-11-28T07:36:19.156Z,4.69
2022-11-28T07:38:54.058Z,4.66
2022-11-28T07:41:28.876Z,4.67
2022-11-28T07:44:05.854Z,4.67
2022-11-28T07:46:40.930Z,4.67
2022-11-28T07:49:15.087Z,4.62
2022-11-28T07:51:48.681Z,4.62
2022-11-28T07:54:22.871Z,4.63
2022-11-28T07:57:11.612Z,4.63
2022-11-28T07:59:46.302Z,4.64
2022-11-28T08:02:19.764Z,4.62
2022-11-28T08:04:55.340Z,4.63
2022-11-28T08:07:29.122Z,4.62
2022-11-28T08:10:02.642Z,4.60
2022-11-28T08:12:36.446Z,4.63
2022-11-28T08:15:12.283Z,4.65
2022-11-28T08:17:45.816Z,4.64
2022-11-28T08:20:19.941Z,4.64
2022-11-28T08:22:53.769Z,4.66
2022-11-28T08:25:28.021Z,4.69
2022-11-28T08:28:01.456Z,4.71
2022-11-28T08:30:35.018Z,4.74
2022-11-28T08:33:08.357Z,4.76
2022-11-28T08:35:44.382Z,4.77
2022-11-28T08:38:17.831Z,4.79
2022-11-28T08:40:51.055Z,4.78
2022-11-28T08:43:24.845Z,4.78
2022-11-28T08:45:58.392Z,4.78
2022-11-28T08:48:31.818Z,4.81
2022-11-28T08:51:05.603Z,4.82
2022-11-28T08:53:39.912Z,4.87
2022-11-28T08:56:14.344Z,4.90
2022-11-28T08:58:47.593Z,4.93
2022-11-28T09:01:23.764Z,4.97
2022-11-28T09:03:58.465Z,5.01
2022-11-28T09:06:31.878Z,5.06
2022-11-28T09:09:05.458Z,5.10
2022-11-28T09:11:39.290Z,5.14
2022-11-28T09:14:13.206Z,5.18
2022-11-28T09:16:46.715Z,5.22
2022-11-28T09:19:20.119Z,5.26
2022-11-28T09:21:57.667Z,5.28
2022-11-28T09:24:31.972Z,5.32
2022-11-28T09:27:06.209Z,5.38
2022-11-28T09:29:39.581Z,5.43
2022-11-28T09:32:13.281Z,5.49
2022-11-28T09:34:46.628Z,5.54
2022-11-28T09:37:20.379Z,5.60
2022-11-28T09:40:12.768Z,5.66
2022-11-28T09:42:48.054Z,5.73
2022-11-28T09:45:24.774Z,5.78
2022-11-28T09:48:03.085Z,5.83
2022-11-28T09:50:40.311Z,5.88
2022-11-28T09:53:23.150Z,5.94
2022-11-28T09:56:01.246Z,5.97
2022-11-28T09:58:43.059Z,6.06
2022-11-28T10:01:26.277Z,6.11
2022-11-28T10:04:05.240Z,6.20
2022-11-28T10:06:48.205Z,6.28
2022-11-28T10:09:35.526Z,6.36
2022-11-28T10:12:28.450Z,6.46
2022-11-28T10:15:26.835Z,6.56
2022-11-28T10:18:19.604Z,6.64
2022-11-28T10:20:58.285Z,6.70
2022-11-28T10:23:37.040Z,6.75
2022-11-28T10:26:18.021Z,6.82
2022-11-28T10:28:55.073Z,6.85
2022-11-28T10:31:35.027Z,6.88
2022-11-28T10:34:16.175Z,6.93
2022-11-28T10:36:58.899Z,6.97
2022-11-28T10:39:32.837Z,7.01
2022-11-28T10:42:14.433Z,7.03
2022-11-28T10:45:13.630Z,7.07
2022-11-28T10:48:37.133Z,7.08
2022-11-28T10:51:09.183Z,7.12
2022-11-28T10:53:45.619Z,7.14
2022-11-28T10:56:31.305Z,7.16
2022-11-28T10:59:16.169Z,7.18
2022-11-28T11:01:51.451Z,7.19
2022-11-28T11:04:28.705Z,7.20
2022-11-28T11:07:21.798Z,7.20
2022-11-28T11:09:58.244Z,7.21
2022-11-28T11:12:36.148Z,7.22
2022-11-28T11:15:23.641Z,7.23
2022-11-28T11:17:58.077Z,7.23
2022-11-28T11:20:42.100Z,7.23
2022-11-28T11:23:20.481Z,7.23
2022-11-28T11:25:56.363Z,7.23
2022-11-28T11:28:42.277Z,7.24
2022-11-28T11:31:28.445Z,7.26
2022-11-28T11:34:09.221Z,7.26
2022-11-28T11:36:42.814Z,7.27
2022-11-28T11:39:25.815Z,7.27
2022-11-28T11:44:59.658Z,7.26
2022-11-28T11:47:46.570Z,7.26
2022-11-28T11:50:23.897Z,7.27
2022-11-28T11:53:09.046Z,7.28
2022-11-28T11:55:48.948Z,7.29
2022-11-28T11:58:25.717Z,7.31
2022-11-28T12:01:01.262Z,7.32
2022-11-28T12:03:38.496Z,7.32
2022-11-28T12:06:19.246Z,7.31
2022-11-28T12:08:55.881Z,7.31
2022-11-28T12:11:33.007Z,7.31
2022-11-28T12:14:26.051Z,7.31
2022-11-28T12:17:40.433Z,7.29
2022-11-28T12:20:28.749Z,7.29
2022-11-28T12:26:18.026Z,7.29
2022-11-28T12:29:06.317Z,7.28
2022-11-28T12:31:50.128Z,7.26
2022-11-28T12:34:37.484Z,7.22
2022-11-28T12:37:19.799Z,7.21
2022-11-28T12:40:01.636Z,7.20
2022-11-28T12:42:47.046Z,7.19
2022-11-28T12:45:38.529Z,7.19
2022-11-28T12:48:32.862Z,7.17
2022-11-28T12:51:16.241Z,7.17
2022-11-28T12:54:07.417Z,7.18
2022-11-28T12:56:50.824Z,7.17
2022-11-28T12:59:33.698Z,7.16
2022-11-28T13:02:26.888Z,7.15
2022-11-28T13:05:17.148Z,7.14
2022-11-28T13:08:15.118Z,7.15
2022-11-28T13:10:57.524Z,7.14
2022-11-28T13:13:36.652Z,7.14
2022-11-28T13:16:25.108Z,7.16
2022-11-28T13:19:06.591Z,7.16
2022-11-28T13:21:47.782Z,7.16
2022-11-28T13:24:29.062Z,7.16
2022-11-28T13:27:11.347Z,7.15
2022-11-28T13:29:52.524Z,7.13
2022-11-28T13:32:32.562Z,7.12
2022-11-28T13:35:07.274Z,7.12
2022-11-28T13:40:45.375Z,7.10
2022-11-28T13:43:25.945Z,7.09
2022-11-28T13:45:59.998Z,7.06
2022-11-28T13:49:14.601Z,7.04
2022-11-28T13:51:49.535Z,7.04
2022-11-28T13:54:48.962Z,7.04
2022-11-28T13:57:29.088Z,7.03
2022-11-28T14:00:22.616Z,7.06
2022-11-28T14:03:00.390Z,7.04
2022-11-28T14:05:37.397Z,7.02
2022-11-28T14:08:27.273Z,6.97
2022-11-28T14:11:16.349Z,6.90
2022-11-28T14:14:05.691Z,6.86
2022-11-28T14:16:54.706Z,6.80
2022-11-28T14:19:41.770Z,6.74
2022-11-28T14:22:28.885Z,6.67
2022-11-28T14:25:10.882Z,6.62
2022-11-28T14:27:55.126Z,6.56
2022-11-28T14:30:35.470Z,6.49
2022-11-28T14:33:17.508Z,6.44
2022-11-28T14:36:23.583Z,6.42
2022-11-28T14:39:34.140Z,6.37
2022-11-28T14:42:59.787Z,6.35
2022-11-28T14:45:48.167Z,6.26
2022-11-28T14:48:34.069Z,6.21
2022-11-28T14:51:07.955Z,6.15
2022-11-28T14:53:46.150Z,6.11
2022-11-28T14:56:32.109Z,6.04
2022-11-28T14:59:06.434Z,5.99
2022-11-28T15:01:52.721Z,5.94
2022-11-28T15:04:46.881Z,5.91
2022-11-28T15:07:30.635Z,5.85
2022-11-28T15:10:16.355Z,5.82
2022-11-28T15:13:03.392Z,5.78
2022-11-28T15:15:37.194Z,5.73
2022-11-28T15:18:13.846Z,5.68
2022-11-28T15:20:54.110Z,5.64
2022-11-28T15:23:31.083Z,5.58
2022-11-28T15:26:05.187Z,5.53
2022-11-28T15:28:39.334Z,5.49
2022-11-28T15:31:23.449Z,5.48
2022-11-28T15:33:57.376Z,5.44
2022-11-28T15:36:31.843Z,5.43
2022-11-28T15:39:05.468Z,5.40
2022-11-28T15:41:38.804Z,5.37
2022-11-28T15:44:18.695Z,5.35
2022-11-28T15:46:52.580Z,5.34
2022-11-28T15:49:31.823Z,5.30
2022-11-28T15:52:06.647Z,5.26
2022-11-28T15:54:44.090Z,5.24
2022-11-28T15:57:25.333Z,5.21
2022-11-28T15:59:59.051Z,5.18
2022-11-28T16:02:38.975Z,5.15
2022-11-28T16:05:21.144Z,5.12
2022-11-28T16:07:55.340Z,5.09
2022-11-28T16:10:34.204Z,5.06
2022-11-28T16:16:32.735Z,4.99
2022-11-28T16:19:12.553Z,4.93
2022-11-28T16:22:02.165Z,4.92
2022-11-28T16:25:01.677Z,4.91
2022-11-28T16:27:50.852Z,4.88
2022-11-28T16:30:46.797Z,4.85
2022-11-28T16:33:48.480Z,4.81
2022-11-28T16:36:49.367Z,4.78
2022-11-28T17:14:49.229Z,4.34
2022-11-28T17:21:03.634Z,4.29
2022-11-28T17:23:43.998Z,4.26
2022-11-28T17:26:42.566Z,4.24
2022-11-28T17:29:43.503Z,4.23
2022-11-28T17:32:25.565Z,4.18
2022-11-28T17:35:11.456Z,4.17
2022-11-28T17:38:00.135Z,4.14
2022-11-28T17:40:37.311Z,4.11
2022-11-28T17:46:50.348Z,4.05
2022-11-28T17:49:28.242Z,4.00
2022-11-28T17:52:08.207Z,3.99
2022-11-28T17:54:43.722Z,3.94
2022-11-28T17:57:22.822Z,3.92
2022-11-28T18:04:28.224Z,3.89
2022-11-28T18:07:05.089Z,3.86
2022-11-28T18:09:42.672Z,3.86
2022-11-28T18:12:22.269Z,3.86
2022-11-28T18:15:01.464Z,3.84
2022-11-28T18:18:42.930Z,3.85
2022-11-28T18:26:31.766Z,3.79
2022-11-28T18:29:33.999Z,3.75
2022-11-28T18:32:08.283Z,3.71
2022-11-28T18:34:41.650Z,3.71
2022-11-28T18:38:04.925Z,3.70
2022-11-28T18:40:39.832Z,3.66
2022-11-28T18:43:13.176Z,3.64
2022-11-28T18:45:47.770Z,3.62
2022-11-28T18:48:23.169Z,3.60
2022-11-28T18:50:56.736Z,3.58
2022-11-28T18:53:30.217Z,3.56
2022-11-28T18:56:11.441Z,3.54
2022-11-28T18:58:46.491Z,3.51
2022-11-28T19:01:22.610Z,3.50
2022-11-28T19:03:58.471Z,3.49
2022-11-28T19:06:32.517Z,3.48
2022-11-28T19:09:10.673Z,3.48
2022-11-28T19:11:46.588Z,3.47
2022-11-28T19:14:21.715Z,3.46
2022-11-28T19:17:00.164Z,3.46
2022-11-28T19:19:40.285Z,3.46
2022-11-28T19:22:14.013Z,3.42
2022-11-28T19:24:47.309Z,3.41
2022-11-28T19:27:22.809Z,3.39
2022-11-28T19:29:56.140Z,3.37
2022-11-28T19:32:29.540Z,3.35
2022-11-28T19:35:04.851Z,3.33
2022-11-28T19:37:38.335Z,3.31
2022-11-28T19:40:15.992Z,3.30
2022-11-28T19:42:49.409Z,3.28
2022-11-28T19:45:22.767Z,3.28
2022-11-28T19:47:58.600Z,3.26
2022-11-28T19:50:32.242Z,3.25
2022-11-28T19:53:05.646Z,3.23
2022-11-28T19:56:01.777Z,3.23
2022-11-28T19:58:39.823Z,3.20
2022-11-28T20:01:16.999Z,3.21
2022-11-28T20:03:52.636Z,3.21
2022-11-28T20:06:34.104Z,3.20
2022-11-28T20:09:12.740Z,3.18
2022-11-28T20:12:28.420Z,3.20
2022-11-28T20:15:06.124Z,3.21
2022-11-28T20:17:39.394Z,3.21
2022-11-28T20:20:14.081Z,3.19
2022-11-28T20:22:51.467Z,3.21
2022-11-28T20:25:26.313Z,3.20
2022-11-28T20:28:04.564Z,3.20
2022-11-28T20:30:41.336Z,3.19
2022-11-28T20:33:35.627Z,3.19
2022-11-28T20:36:16.570Z,3.19
2022-11-28T20:38:50.866Z,3.19
2022-11-28T20:41:27.452Z,3.18
2022-11-28T20:44:02.076Z,3.19
2022-11-28T20:46:36.762Z,3.17
2022-11-28T20:49:11.749Z,3.15
2022-11-28T20:51:45.143Z,3.16
2022-11-28T20:54:19.055Z,3.08
2022-11-28T20:57:20.342Z,3.13
2022-11-28T20:59:49.348Z,3.13
2022-11-28T21:02:24.435Z,3.13
2022-11-28T21:05:02.259Z,3.12
2022-11-28T21:07:36.470Z,3.11
2022-11-28T21:10:11.259Z,3.11
2022-11-28T21:12:44.814Z,3.11
2022-11-28T21:15:17.965Z,3.12
2022-11-28T21:17:51.184Z,3.10
2022-11-28T21:20:24.100Z,3.12
2022-11-28T21:22:57.048Z,3.12
2022-11-28T21:25:29.988Z,3.12
2022-11-28T21:28:02.946Z,3.13
2022-11-28T21:30:40.445Z,3.12
2022-11-28T21:33:14.856Z,3.13
2022-11-28T21:35:47.798Z,3.13
2022-11-28T21:38:20.968Z,3.13
2022-11-28T21:40:59.645Z,3.12
2022-11-28T21:43:33.249Z,3.10
2022-11-28T21:46:08.554Z,3.10
2022-11-28T21:48:42.619Z,3.07
2022-11-28T21:51:22.130Z,3.08
2022-11-28T21:53:57.811Z,3.10
2022-11-28T21:56:30.995Z,3.08
2022-11-28T21:59:05.036Z,3.09
2022-11-28T22:01:38.453Z,3.08
2022-11-28T22:04:14.072Z,3.06
2022-11-28T22:06:46.988Z,3.10
2022-11-28T22:09:19.965Z,3.10
2022-11-28T22:11:53.319Z,3.08
2022-11-28T22:14:26.644Z,3.09
2022-11-28T22:17:00.891Z,3.10
2022-11-28T22:19:36.460Z,3.08
2022-11-28T22:22:09.610Z,3.07
2022-11-28T22:24:47.464Z,3.06
2022-11-28T22:27:21.737Z,3.06
2022-11-28T22:29:55.258Z,3.05
2022-11-28T22:32:28.106Z,3.04
2022-11-28T22:35:02.778Z,3.04
2022-11-28T22:37:35.828Z,3.02
2022-11-28T22:40:11.473Z,3.01
2022-11-28T22:42:44.508Z,2.99
2022-11-28T22:45:17.701Z,2.99
2022-11-28T22:47:50.477Z,3.00
2022-11-28T22:50:23.613Z,2.99
2022-11-28T22:52:57.449Z,3.00
2022-11-28T22:55:30.252Z,3.00
2022-11-28T22:58:03.958Z,2.98
2022-11-28T23:00:37.276Z,3.00
2022-11-28T23:03:10.443Z,3.00
2022-11-28T23:05:48.974Z,2.99
2022-11-28T23:08:24.271Z,3.01
2022-11-28T23:10:57.316Z,3.02
2022-11-28T23:13:32.812Z,3.02
2022-11-28T23:16:41.297Z,3.02
2022-11-28T23:19:16.865Z,3.02
2022-11-28T23:21:52.979Z,3.04
2022-11-28T23:24:26.668Z,3.05
2022-11-28T23:27:00.044Z,3.08
2022-11-28T23:29:33.503Z,3.08
2022-11-28T23:32:06.854Z,3.09
2022-11-28T23:34:40.440Z,3.09
2022-11-28T23:37:13.716Z,3.06
2022-11-28T23:39:46.755Z,3.07
2022-11-28T23:42:19.996Z,3.07
2022-11-28T23:44:53.035Z,3.07
2022-11-28T23:47:25.991Z,3.08
2022-11-28T23:50:01.159Z,3.08
2022-11-28T23:52:34.135Z,3.08
2022-11-28T23:55:08.294Z,3.08
2022-11-28T23:57:41.146Z,3.07
